createdAt,value
2023-10-10T00:00:17.996Z,55.474775
2023-10-10T00:05:18.325Z,55.376750
2023-10-10T00:10:18.260Z,55.601110
2023-10-10T00:15:18.094Z,55.502944
2023-10-10T00:20:18.259Z,55.404778
2023-10-10T00:25:18.362Z,55.306612
2023-10-10T00:30:18.185Z,55.306612
2023-10-10T00:35:18.195Z,55.625307
2023-10-10T00:40:18.193Z,55.208445
2023-10-10T00:45:18.219Z,54.788593
2023-10-10T00:50:18.386Z,55.110278
2023-10-10T00:55:18.340Z,55.110278
2023-10-10T01:00:18.109Z,54.267794
2023-10-10T01:05:18.234Z,54.494508
2023-10-10T01:10:16.229Z,54.494508
2023-10-10T01:15:16.496Z,54.396479
2023-10-10T01:20:16.373Z,54.521266
2023-10-10T01:25:16.725Z,54.102390
2023-10-10T01:30:16.276Z,54.226754
2023-10-10T01:35:16.527Z,54.030411
2023-10-10T01:40:16.371Z,54.248995
2023-10-10T01:45:17.230Z,54.248995
2023-10-10T01:50:16.397Z,54.150684
2023-10-10T01:55:16.626Z,54.052373
2023-10-10T02:00:16.556Z,54.052373
2023-10-10T02:05:16.427Z,54.267225
2023-10-10T02:10:16.423Z,54.267225
2023-10-10T02:15:16.481Z,53.954062
2023-10-10T02:20:16.460Z,54.168776
2023-10-10T02:25:16.601Z,53.954062
2023-10-10T02:30:16.272Z,53.855750
2023-10-10T02:35:16.737Z,54.168776
2023-10-10T02:40:16.671Z,54.168776
2023-10-10T02:45:16.497Z,54.070327
2023-10-10T02:50:16.413Z,53.659125
2023-10-10T02:55:16.513Z,53.560812
2023-10-10T03:00:16.552Z,53.462499
2023-10-10T03:05:16.764Z,53.578076
2023-10-10T03:10:16.647Z,53.167556
2023-10-10T03:15:16.734Z,52.970926
2023-10-10T03:20:16.499Z,52.675979
2023-10-10T03:25:56.200Z,52.479345
2023-10-10T03:30:17.729Z,52.790458
2023-10-10T03:35:17.473Z,52.999891
2023-10-10T03:40:17.511Z,52.790458
2023-10-10T03:45:18.740Z,53.197068
2023-10-10T03:50:17.728Z,53.197068
2023-10-10T03:55:17.532Z,52.888911
2023-10-10T04:00:17.846Z,52.888911
2023-10-10T04:05:27.161Z,52.479345
2023-10-10T04:10:16.866Z,52.790458
2023-10-10T04:15:16.716Z,52.888911
2023-10-10T04:20:16.630Z,52.888911
2023-10-10T04:25:16.977Z,52.987364
2023-10-10T04:30:16.791Z,52.987364
2023-10-10T04:35:16.992Z,52.987364
2023-10-10T04:40:16.643Z,52.987364
2023-10-10T04:45:16.622Z,52.675979
2023-10-10T04:50:16.800Z,52.675979
2023-10-10T04:55:16.645Z,52.577662
2023-10-10T05:00:17.143Z,52.381028
2023-10-10T05:05:16.718Z,52.184392
2023-10-10T05:10:17.075Z,51.987755
2023-10-10T05:15:16.840Z,51.791116
2023-10-10T05:20:16.799Z,51.904361
2023-10-10T05:25:16.885Z,51.608989
2023-10-10T05:30:16.807Z,51.816798
2023-10-10T05:35:16.815Z,51.422424
2023-10-10T05:40:16.781Z,51.225235
2023-10-10T05:45:18.347Z,50.929449
2023-10-10T05:50:16.780Z,50.830853
2023-10-10T05:55:17.023Z,50.830853
2023-10-10T06:00:16.981Z,50.732257
2023-10-10T06:05:16.864Z,50.935316
2023-10-10T06:10:16.815Z,50.935316
2023-10-10T06:15:17.314Z,50.836586
2023-10-10T06:20:17.014Z,50.639125
2023-10-10T06:25:16.932Z,50.540394
2023-10-10T06:30:16.856Z,50.540394
2023-10-10T06:35:16.939Z,50.838590
2023-10-10T06:40:16.937Z,50.739726
2023-10-10T06:45:17.098Z,50.739726
2023-10-10T06:50:17.025Z,50.739726
2023-10-10T06:55:17.408Z,50.640863
2023-10-10T07:00:16.982Z,50.640863
2023-10-10T07:05:17.091Z,50.640863
2023-10-10T07:10:16.957Z,50.640863
2023-10-10T07:15:17.179Z,50.640863
2023-10-10T07:20:17.332Z,50.838590
2023-10-10T07:25:17.319Z,50.937452
2023-10-10T07:30:17.848Z,51.135177
2023-10-10T07:35:48.683Z,51.135177
2023-10-10T07:40:19.381Z,51.234039
2023-10-10T07:45:19.224Z,51.430898
2023-10-10T07:50:18.495Z,51.331905
2023-10-10T07:55:18.394Z,51.331905
2023-10-10T08:00:18.085Z,51.331905
2023-10-10T08:05:18.215Z,51.331905
2023-10-10T08:10:18.207Z,51.331905
2023-10-10T08:15:18.149Z,51.331905
2023-10-10T08:20:18.274Z,51.232912
2023-10-10T08:25:18.191Z,51.331905
2023-10-10T08:30:18.113Z,51.331905
2023-10-10T08:35:18.611Z,51.331905
2023-10-10T08:40:18.130Z,51.430898
2023-10-10T08:45:18.340Z,51.232912
2023-10-10T08:50:18.476Z,51.133918
2023-10-10T08:55:18.169Z,51.034924
2023-10-10T09:00:18.220Z,50.935930
2023-10-10T09:05:16.617Z,50.836936
2023-10-10T09:10:16.244Z,50.836936
2023-10-10T09:15:16.336Z,50.737941
2023-10-10T09:20:16.598Z,50.638947
2023-10-10T09:25:16.340Z,50.539952
2023-10-10T09:30:16.196Z,50.440956
2023-10-10T09:35:16.380Z,50.440956
2023-10-10T09:40:16.542Z,50.341961
2023-10-10T09:45:17.043Z,50.242965
2023-10-10T09:50:16.839Z,50.143970
2023-10-10T09:55:16.674Z,50.044973
2023-10-10T10:00:27.190Z,50.044973
2023-10-10T10:05:16.553Z,49.945977
2023-10-10T10:10:16.366Z,49.747984
2023-10-10T10:15:16.737Z,49.648987
2023-10-10T10:20:16.507Z,49.648987
2023-10-10T10:25:16.426Z,49.648987
2023-10-10T10:30:16.534Z,49.747984
2023-10-10T10:35:16.698Z,49.846981
2023-10-10T10:40:16.511Z,50.044973
2023-10-10T10:45:16.498Z,50.143970
2023-10-10T10:50:16.542Z,50.242965
2023-10-10T10:55:16.411Z,50.440956
2023-10-10T11:00:16.634Z,50.440956
2023-10-10T11:05:17.005Z,50.638947
2023-10-10T11:10:16.428Z,50.638947
2023-10-10T11:15:16.623Z,50.737941
2023-10-10T11:20:16.500Z,50.443136
2023-10-10T11:25:16.700Z,50.443136
2023-10-10T11:30:16.856Z,50.640863
2023-10-10T11:35:16.629Z,50.640863
2023-10-10T11:40:16.812Z,50.739726
2023-10-10T11:45:17.558Z,50.937452
2023-10-10T11:50:16.817Z,51.135177
2023-10-10T11:55:16.713Z,51.332901
2023-10-10T12:00:26.350Z,51.431763
2023-10-10T12:05:16.809Z,51.231504
2023-10-10T12:10:16.673Z,51.428962
2023-10-10T12:15:16.743Z,51.527690
2023-10-10T12:20:17.245Z,51.725146
2023-10-10T12:25:16.719Z,51.922601
2023-10-10T12:30:16.683Z,52.120055
2023-10-10T12:35:16.898Z,52.112575
2023-10-10T12:40:16.750Z,52.506941
2023-10-10T12:45:16.744Z,52.704122
2023-10-10T12:50:16.832Z,52.692004
2023-10-10T12:55:16.861Z,52.790458
2023-10-10T13:00:16.731Z,52.577662
2023-10-10T13:05:16.867Z,53.085817
2023-10-10T13:10:16.855Z,52.970926
2023-10-10T13:15:16.738Z,53.364185
2023-10-10T13:20:16.808Z,53.441373
2023-10-10T13:25:17.012Z,53.637721
2023-10-10T13:30:16.726Z,53.932239
2023-10-10T13:35:17.139Z,54.030411
2023-10-10T13:40:16.853Z,54.128583
2023-10-10T13:45:18.573Z,54.226754
2023-10-10T13:50:16.905Z,54.324925
2023-10-10T13:55:16.861Z,54.423096
2023-10-10T14:00:16.939Z,54.423096
2023-10-10T14:05:17.123Z,54.619435
2023-10-10T14:10:16.793Z,54.619435
2023-10-10T14:15:16.989Z,54.717605
2023-10-10T14:20:16.932Z,54.396479
2023-10-10T14:25:16.984Z,54.592537
2023-10-10T14:30:17.030Z,54.690565
2023-10-10T14:35:17.174Z,55.110278
2023-10-10T14:40:16.850Z,54.788593
2023-10-10T14:45:16.916Z,54.886620
2023-10-10T14:50:17.156Z,54.984647
2023-10-10T14:55:17.189Z,54.984647
2023-10-10T15:00:17.109Z,54.984647
2023-10-10T15:05:17.105Z,55.404778
2023-10-10T15:10:17.282Z,55.502944
2023-10-10T15:15:17.051Z,55.180699
2023-10-10T15:20:17.112Z,55.502944
2023-10-10T15:25:17.195Z,55.502944
2023-10-10T15:30:17.036Z,55.278725
2023-10-10T15:35:17.070Z,56.116829
2023-10-10T15:40:17.015Z,56.116829
2023-10-10T15:45:18.571Z,56.018526
2023-10-10T15:50:17.243Z,55.920221
2023-10-10T15:55:17.101Z,55.821917
2023-10-10T16:00:17.056Z,56.253167
2023-10-10T16:05:17.718Z,55.871461
2023-10-10T16:10:17.019Z,55.979125
2023-10-10T16:15:29.723Z,55.781424
2023-10-10T16:20:17.324Z,55.682574
2023-10-10T16:25:17.282Z,55.484872
2023-10-10T16:30:17.104Z,55.583723
2023-10-10T16:35:17.461Z,55.081725
2023-10-10T16:40:17.166Z,54.884288
2023-10-10T16:45:17.420Z,54.675863
2023-10-10T16:50:17.496Z,54.675863
2023-10-10T16:55:17.487Z,54.478694
2023-10-10T17:00:17.336Z,54.365673
2023-10-10T17:05:17.712Z,54.675863
2023-10-10T17:10:17.240Z,54.464121
2023-10-10T17:15:17.409Z,54.873030
2023-10-10T17:20:17.747Z,54.971613
2023-10-10T17:25:17.991Z,54.971613
2023-10-10T17:30:17.253Z,55.267361
2023-10-10T17:35:17.603Z,55.365943
2023-10-10T17:40:17.359Z,54.562569
2023-10-10T17:45:18.282Z,55.365943
2023-10-10T20:25:18.019Z,56.365038
2023-10-10T20:30:17.673Z,56.365038
2023-10-10T20:35:17.832Z,56.365038
2023-10-10T20:40:17.663Z,56.463752
2023-10-10T20:45:17.742Z,56.365038
2023-10-10T20:50:18.178Z,56.365038
2023-10-10T20:55:17.880Z,56.463752
2023-10-10T21:00:17.748Z,56.351746
2023-10-10T21:05:17.829Z,56.548903
2023-10-10T21:10:17.777Z,56.548903
2023-10-10T21:15:17.873Z,56.236130
2023-10-10T21:20:17.869Z,56.531454
2023-10-10T21:25:18.059Z,56.313436
2023-10-10T21:30:18.105Z,56.116829
2023-10-10T21:35:18.107Z,56.116829
2023-10-10T21:40:17.905Z,56.116829
2023-10-10T21:45:18.581Z,56.116829
2023-10-10T21:50:17.875Z,55.920221
2023-10-10T21:55:17.890Z,56.018526
2023-10-10T22:00:17.833Z,56.018526
2023-10-10T22:05:18.072Z,56.116829
2023-10-10T22:10:17.894Z,56.215133
2023-10-10T22:15:18.098Z,56.018526
2023-10-10T22:20:18.077Z,56.116829
2023-10-10T22:25:17.899Z,56.334571
2023-10-10T22:30:17.981Z,56.236130
2023-10-10T22:35:18.140Z,56.236130
2023-10-10T22:40:18.314Z,56.039245
2023-10-10T22:45:18.078Z,56.253167
2023-10-10T22:50:18.440Z,55.842359
2023-10-10T22:55:17.967Z,56.056008
2023-10-10T23:00:17.950Z,56.056008
2023-10-10T23:05:18.058Z,56.056008
2023-10-10T23:10:17.960Z,56.056008
2023-10-10T23:15:18.332Z,56.056008
2023-10-10T23:20:18.235Z,56.056008
2023-10-10T23:25:18.206Z,56.056008
2023-10-10T23:30:18.164Z,56.253167
2023-10-10T23:35:18.348Z,56.253167
2023-10-10T23:40:18.060Z,56.365038
2023-10-10T23:45:19.627Z,56.562466
2023-10-10T23:50:18.333Z,56.858607
2023-10-10T23:55:18.125Z,56.957320
